Time,TemperatureF,DewpointF,PressureIn,WindDirection,WindDirectionDegrees,WindSpeedMPH,WindSpeedGustMPH,Humidity,HourlyPrecipIn,Conditions,Clouds,dailyrainin,SoftwareType,DateUTC
2013-01-12 00:05:00,32.0,30.7,30.37,SE,146,0.0,0.0,95,0.00,,,0.00,Wunderground v.1.15,2013-01-12 05:05:00,
2013-01-12 00:10:00,32.1,30.8,30.36,SW,229,1.0,1.0,95,0.00,,,0.00,Wunderground v.1.15,2013-01-12 05:10:00,
2013-01-12 00:15:00,32.1,30.8,30.36,SW,229,1.0,1.0,95,0.00,,,0.00,Wunderground v.1.15,2013-01-12 05:15:00,
2013-01-12 00:20:00,32.1,30.8,30.35,SSE,162,0.0,1.0,95,0.00,,,0.00,Wunderground v.1.15,2013-01-12 05:20:00,
2013-01-12 00:25:00,32.1,30.6,30.35,SSE,161,1.0,1.0,94,0.00,,,0.00,Wunderground v.1.15,2013-01-12 05:25:00,
2013-01-12 00:30:00,32.1,30.8,30.36,SE,146,1.0,2.0,95,0.00,,,0.00,Wunderground v.1.15,2013-01-12 05:30:00,
2013-01-12 00:35:00,32.1,30.8,30.36,SE,133,1.0,2.0,95,0.00,,,0.00,Wunderground v.1.15,2013-01-12 05:35:00,
2013-01-12 00:40:00,32.0,30.7,30.36,SE,133,1.0,1.0,95,0.00,,,0.00,Wunderground v.1.15,2013-01-12 05:40:00,
2013-01-12 00:45:00,32.0,30.7,30.35,SE,133,0.0,1.0,95,0.00,,,0.00,Wunderground v.1.15,2013-01-12 05:45:00,
2013-01-12 00:50:00,32.0,30.7,30.35,SE,133,0.0,0.0,95,0.00,,,0.01,Wunderground v.1.15,2013-01-12 05:50:00,
2013-01-12 00:55:00,32.0,30.7,30.35,SE,133,0.0,1.0,95,0.00,,,0.01,Wunderground v.1.15,2013-01-12 05:55:00,
2013-01-12 01:05:00,31.9,30.6,30.35,SE,133,0.0,0.0,95,0.00,,,0.01,Wunderground v.1.15,2013-01-12 06:05:00,
2013-01-12 01:10:00,32.1,30.8,30.36,SE,133,0.0,0.0,95,0.00,,,0.01,Wunderground v.1.15,2013-01-12 06:10:00,
2013-01-12 01:15:00,32.5,31.2,30.36,SE,133,0.0,0.0,95,0.00,,,0.01,Wunderground v.1.15,2013-01-12 06:15:00,
2013-01-12 01:20:00,32.5,31.2,30.35,SE,133,0.0,0.0,95,0.00,,,0.01,Wunderground v.1.15,2013-01-12 06:20:00,
2013-01-12 01:25:00,32.5,31.2,30.36,SE,133,0.0,0.0,95,0.00,,,0.01,Wunderground v.1.15,2013-01-12 06:25:00,
2013-01-12 01:30:00,32.6,31.3,30.36,SE,133,0.0,0.0,95,0.00,,,0.01,Wunderground v.1.15,2013-01-12 06:30:00,
2013-01-12 01:35:00,32.5,31.2,30.36,SE,133,0.0,0.0,95,0.00,,,0.01,Wunderground v.1.15,2013-01-12 06:35:00,
2013-01-12 01:40:00,32.4,31.1,30.35,SE,133,0.0,0.0,95,0.00,,,0.02,Wunderground v.1.15,2013-01-12 06:40:00,
2013-01-12 01:45:00,32.5,31.2,30.34,SE,133,0.0,1.0,95,0.00,,,0.02,Wunderground v.1.15,2013-01-12 06:45:00,
2013-01-12 01:50:00,32.5,31.2,30.35,SE,133,0.0,1.0,95,0.00,,,0.02,Wunderground v.1.15,2013-01-12 06:50:00,
2013-01-12 01:55:00,32.7,31.4,30.35,SE,133,0.0,2.0,95,0.00,,,0.02,Wunderground v.1.15,2013-01-12 06:55:00,
2013-01-12 02:01:00,32.7,31.4,30.35,SE,133,1.0,1.0,95,0.00,,,0.02,Wunderground v.1.15,2013-01-12 07:01:00,
2013-01-12 02:05:00,32.7,31.4,30.36,SE,133,1.0,1.0,95,0.00,,,0.02,Wunderground v.1.15,2013-01-12 07:05:00,
2013-01-12 02:10:00,32.9,31.6,30.35,SE,133,0.0,1.0,95,0.00,,,0.02,Wunderground v.1.15,2013-01-12 07:10:00,
2013-01-12 02:15:00,32.9,31.6,30.35,SE,133,0.0,0.0,95,0.00,,,0.02,Wunderground v.1.15,2013-01-12 07:15:00,
2013-01-12 02:25:00,32.8,31.5,30.34,SE,133,0.0,0.0,95,0.00,,,0.02,Wunderground v.1.15,2013-01-12 07:25:00,
2013-01-12 02:30:00,32.8,31.5,30.34,SE,133,0.0,0.0,95,0.00,,,0.02,Wunderground v.1.15,2013-01-12 07:30:00,
2013-01-12 02:35:00,32.7,31.4,30.34,SE,133,0.0,0.0,95,0.00,,,0.02,Wunderground v.1.15,2013-01-12 07:35:00,
2013-01-12 02:40:00,32.6,31.3,30.35,SE,133,0.0,0.0,95,0.00,,,0.02,Wunderground v.1.15,2013-01-12 07:40:00,
2013-01-12 02:45:00,32.9,31.6,30.35,SE,133,0.0,0.0,95,0.00,,,0.02,Wunderground v.1.15,2013-01-12 07:45:00,
2013-01-12 02:50:00,32.8,31.5,30.34,SE,133,0.0,0.0,95,0.00,,,0.02,Wunderground v.1.15,2013-01-12 07:50:00,
2013-01-12 02:55:00,32.7,31.4,30.33,SE,133,0.0,0.0,95,0.00,,,0.02,Wunderground v.1.15,2013-01-12 07:55:00,
2013-01-12 03:00:00,32.7,31.4,30.33,SE,133,0.0,1.0,95,0.00,,,0.02,Wunderground v.1.15,2013-01-12 08:00:00,
2013-01-12 03:10:00,32.8,31.5,30.33,SSW,211,2.0,2.0,95,0.00,,,0.02,Wunderground v.1.15,2013-01-12 08:10:00,
2013-01-12 03:15:00,32.9,31.6,30.32,SW,219,2.0,2.0,95,0.00,,,0.02,Wunderground v.1.15,2013-01-12 08:15:00,
2013-01-12 03:20:00,33.0,31.7,30.32,SW,215,1.0,1.0,95,0.00,,,0.02,Wunderground v.1.15,2013-01-12 08:20:00,
2013-01-12 03:25:00,33.1,31.8,30.32,SW,215,1.0,2.0,95,0.00,,,0.03,Wunderground v.1.15,2013-01-12 08:25:00,
2013-01-12 03:30:00,33.0,31.7,30.32,SE,124,1.0,3.0,95,0.00,,,0.03,Wunderground v.1.15,2013-01-12 08:30:00,
2013-01-12 03:35:00,32.6,31.3,30.33,SE,124,1.0,3.0,95,0.00,,,0.03,Wunderground v.1.15,2013-01-12 08:35:00,
2013-01-12 03:40:00,32.4,31.1,30.32,SE,124,1.0,1.0,95,0.00,,,0.03,Wunderground v.1.15,2013-01-12 08:40:00,
2013-01-12 03:45:00,32.4,31.1,30.33,SE,124,0.0,1.0,95,0.00,,,0.03,Wunderground v.1.15,2013-01-12 08:45:00,
2013-01-12 03:50:00,32.5,31.2,30.33,SE,124,0.0,0.0,95,0.00,,,0.03,Wunderground v.1.15,2013-01-12 08:50:00,
2013-01-12 03:55:00,32.5,31.2,30.32,SE,124,0.0,0.0,95,0.00,,,0.03,Wunderground v.1.15,2013-01-12 08:55:00,
2013-01-12 04:00:00,32.6,31.3,30.32,SE,124,0.0,0.0,95,0.00,,,0.03,Wunderground v.1.15,2013-01-12 09:00:00,
2013-01-12 04:10:00,32.7,31.4,30.32,SE,124,0.0,0.0,95,0.00,,,0.03,Wunderground v.1.15,2013-01-12 09:10:00,
2013-01-12 04:15:00,32.7,31.4,30.32,SE,124,0.0,1.0,95,0.00,,,0.03,Wunderground v.1.15,2013-01-12 09:15:00,
2013-01-12 04:20:00,32.8,31.5,30.31,SE,124,1.0,1.0,95,0.00,,,0.03,Wunderground v.1.15,2013-01-12 09:20:00,
2013-01-12 04:25:00,32.8,31.5,30.31,SE,124,1.0,1.0,95,0.00,,,0.03,Wunderground v.1.15,2013-01-12 09:25:00,
2013-01-12 04:30:00,33.2,32.2,30.31,SE,124,0.0,0.0,96,0.00,,,0.04,Wunderground v.1.15,2013-01-12 09:30:00,
2013-01-12 04:35:00,33.3,32.3,30.31,SE,124,0.0,0.0,96,0.00,,,0.04,Wunderground v.1.15,2013-01-12 09:35:00,
2013-01-12 04:45:00,33.3,32.0,30.32,SE,124,0.0,0.0,95,0.00,,,0.04,Wunderground v.1.15,2013-01-12 09:45:00,
2013-01-12 04:55:00,33.1,31.8,30.32,SE,124,0.0,0.0,95,0.00,,,0.04,Wunderground v.1.15,2013-01-12 09:55:00,
2013-01-12 05:01:00,33.0,31.7,30.31,SE,124,0.0,0.0,95,0.00,,,0.04,Wunderground v.1.15,2013-01-12 10:01:00,
2013-01-12 05:05:00,33.1,31.8,30.31,SE,124,0.0,0.0,95,0.00,,,0.04,Wunderground v.1.15,2013-01-12 10:05:00,
2013-01-12 05:10:00,33.0,31.7,30.31,SE,124,0.0,0.0,95,0.00,,,0.04,Wunderground v.1.15,2013-01-12 10:10:00,
2013-01-12 05:15:00,33.0,31.7,30.31,SE,124,0.0,0.0,95,0.00,,,0.04,Wunderground v.1.15,2013-01-12 10:15:00,
2013-01-12 05:20:00,33.0,31.7,30.31,SE,124,0.0,0.0,95,0.00,,,0.04,Wunderground v.1.15,2013-01-12 10:20:00,
2013-01-12 05:25:00,32.9,31.6,30.31,SE,124,0.0,0.0,95,0.00,,,0.04,Wunderground v.1.15,2013-01-12 10:25:00,
2013-01-12 05:30:00,33.0,31.7,30.31,SE,138,0.0,1.0,95,0.00,,,0.04,Wunderground v.1.15,2013-01-12 10:30:00,
2013-01-12 05:40:00,33.1,31.8,30.32,SE,138,0.0,0.0,95,0.00,,,0.04,Wunderground v.1.15,2013-01-12 10:40:00,
2013-01-12 05:45:00,33.1,31.8,30.32,SE,138,0.0,0.0,95,0.00,,,0.04,Wunderground v.1.15,2013-01-12 10:45:00,
2013-01-12 05:50:00,33.2,31.9,30.31,SE,138,0.0,0.0,95,0.00,,,0.04,Wunderground v.1.15,2013-01-12 10:50:00,
2013-01-12 05:55:00,33.1,31.8,30.31,SE,138,0.0,0.0,95,0.00,,,0.04,Wunderground v.1.15,2013-01-12 10:55:00,
2013-01-12 06:00:00,33.1,31.8,30.30,SE,140,0.0,0.0,95,0.00,,,0.04,Wunderground v.1.15,2013-01-12 11:00:00,
2013-01-12 06:05:00,33.2,31.9,30.30,SE,140,0.0,0.0,95,0.00,,,0.04,Wunderground v.1.15,2013-01-12 11:05:00,
2013-01-12 06:10:00,33.4,32.1,30.30,SE,140,0.0,0.0,95,0.00,,,0.04,Wunderground v.1.15,2013-01-12 11:10:00,
2013-01-12 06:15:00,33.2,31.9,30.30,SE,140,0.0,0.0,95,0.00,,,0.04,Wunderground v.1.15,2013-01-12 11:15:00,
2013-01-12 06:20:00,33.2,31.9,30.31,SE,140,0.0,0.0,95,0.00,,,0.04,Wunderground v.1.15,2013-01-12 11:20:00,
2013-01-12 06:25:00,33.2,31.9,30.31,SE,140,0.0,0.0,95,0.00,,,0.04,Wunderground v.1.15,2013-01-12 11:25:00,
2013-01-12 06:30:00,33.3,32.0,30.32,SE,140,0.0,0.0,95,0.00,,,0.04,Wunderground v.1.15,2013-01-12 11:30:00,
2013-01-12 06:35:00,33.3,32.0,30.32,SE,140,0.0,0.0,95,0.00,,,0.04,Wunderground v.1.15,2013-01-12 11:35:00,
2013-01-12 06:45:00,33.2,31.9,30.31,SE,135,1.0,2.0,95,0.00,,,0.04,Wunderground v.1.15,2013-01-12 11:45:00,
2013-01-12 06:50:00,33.2,31.9,30.31,SE,125,2.0,2.0,95,0.00,,,0.04,Wunderground v.1.15,2013-01-12 11:50:00,
2013-01-12 06:55:00,33.2,31.9,30.32,SE,125,1.0,2.0,95,0.00,,,0.04,Wunderground v.1.15,2013-01-12 11:55:00,
2013-01-12 07:00:00,33.3,32.3,30.33,SSW,205,1.0,1.0,96,0.00,,,0.04,Wunderground v.1.15,2013-01-12 12:00:00,
2013-01-12 07:05:00,33.1,31.8,30.33,SSW,205,1.0,1.0,95,0.00,,,0.04,Wunderground v.1.15,2013-01-12 12:05:00,
2013-01-12 07:10:00,33.0,31.7,30.33,SSW,205,1.0,1.0,95,0.00,,,0.04,Wunderground v.1.15,2013-01-12 12:10:00,
2013-01-12 07:15:00,33.2,32.2,30.33,WSW,238,1.0,1.0,96,0.00,,,0.04,Wunderground v.1.15,2013-01-12 12:15:00,
2013-01-12 07:20:00,33.3,32.3,30.33,WSW,238,1.0,1.0,96,0.00,,,0.05,Wunderground v.1.15,2013-01-12 12:20:00,
2013-01-12 07:25:00,33.2,32.2,30.33,WSW,238,0.0,1.0,96,0.00,,,0.05,Wunderground v.1.15,2013-01-12 12:25:00,
2013-01-12 07:30:00,33.0,31.7,30.33,SSW,205,1.0,2.0,95,0.00,,,0.05,Wunderground v.1.15,2013-01-12 12:30:00,
2013-01-12 07:35:00,33.0,31.7,30.33,SSW,205,1.0,2.0,95,0.00,,,0.05,Wunderground v.1.15,2013-01-12 12:35:00,
2013-01-12 07:40:00,33.1,32.1,30.33,SSW,205,0.0,0.0,96,0.00,,,0.05,Wunderground v.1.15,2013-01-12 12:40:00,
2013-01-12 07:45:00,33.2,32.2,30.33,SSW,205,0.0,1.0,96,0.00,,,0.05,Wunderground v.1.15,2013-01-12 12:45:00,
2013-01-12 07:50:00,33.5,32.5,30.34,SW,236,0.0,2.0,96,0.00,,,0.05,Wunderground v.1.15,2013-01-12 12:50:00,
2013-01-12 07:55:00,33.6,32.6,30.32,West,259,2.0,2.0,96,0.00,,,0.05,Wunderground v.1.15,2013-01-12 12:55:00,
2013-01-12 08:00:00,33.8,32.8,30.32,WSW,250,2.0,2.0,96,0.00,,,0.05,Wunderground v.1.15,2013-01-12 13:00:00,
2013-01-12 08:05:00,34.1,33.1,30.32,WSW,242,1.0,2.0,96,0.00,,,0.05,Wunderground v.1.15,2013-01-12 13:05:00,
2013-01-12 08:10:00,34.2,33.2,30.32,SSW,202,1.0,2.0,96,0.00,,,0.05,Wunderground v.1.15,2013-01-12 13:10:00,
2013-01-12 08:15:00,34.4,33.4,30.32,SW,229,1.0,5.0,96,0.00,,,0.06,Wunderground v.1.15,2013-01-12 13:15:00,
2013-01-12 08:20:00,34.7,33.7,30.32,WSW,238,3.0,3.0,96,0.00,,,0.06,Wunderground v.1.15,2013-01-12 13:20:00,
2013-01-12 08:25:00,34.7,33.7,30.32,WSW,250,3.0,3.0,96,0.00,,,0.06,Wunderground v.1.15,2013-01-12 13:25:00,
2013-01-12 08:30:00,34.7,33.7,30.33,WSW,239,3.0,3.0,96,0.00,,,0.06,Wunderground v.1.15,2013-01-12 13:30:00,
2013-01-12 08:35:00,34.8,33.8,30.32,WSW,250,4.0,5.0,96,0.00,,,0.07,Wunderground v.1.15,2013-01-12 13:35:00,
2013-01-12 08:40:00,34.9,33.9,30.33,SW,234,4.0,4.0,96,0.00,,,0.07,Wunderground v.1.15,2013-01-12 13:40:00,
2013-01-12 08:45:00,34.9,33.9,30.32,SW,233,4.0,4.0,96,0.05,,,0.08,Wunderground v.1.15,2013-01-12 13:45:00,
2013-01-12 08:50:00,35.0,34.0,30.31,West,275,4.0,6.0,96,0.05,,,0.08,Wunderground v.1.15,2013-01-12 13:50:00,
2013-01-12 08:55:00,35.3,34.3,30.31,West,279,5.0,6.0,96,0.05,,,0.08,Wunderground v.1.15,2013-01-12 13:55:00,
2013-01-12 09:00:00,35.5,34.5,30.32,WSW,258,4.0,4.0,96,0.00,,,0.08,Wunderground v.1.15,2013-01-12 14:00:00,
2013-01-12 09:05:00,35.6,34.6,30.32,NNW,327,2.0,4.0,96,0.00,,,0.09,Wunderground v.1.15,2013-01-12 14:05:00,
2013-01-12 09:10:00,35.5,34.2,30.32,West,274,3.0,3.0,95,0.00,,,0.09,Wunderground v.1.15,2013-01-12 14:10:00,
2013-01-12 09:15:00,35.4,34.1,30.33,West,263,4.0,6.0,95,0.00,,,0.09,Wunderground v.1.15,2013-01-12 14:15:00,
2013-01-12 09:20:00,35.3,34.0,30.33,WSW,253,4.0,4.0,95,0.00,,,0.09,Wunderground v.1.15,2013-01-12 14:20:00,
2013-01-12 09:25:00,35.3,34.0,30.33,SW,228,3.0,4.0,95,0.00,,,0.09,Wunderground v.1.15,2013-01-12 14:25:00,
2013-01-12 09:35:00,35.4,34.1,30.32,SSE,168,1.0,1.0,95,0.00,,,0.09,Wunderground v.1.15,2013-01-12 14:35:00,
2013-01-12 09:40:00,35.3,34.0,30.31,SSE,168,1.0,1.0,95,0.00,,,0.09,Wunderground v.1.15,2013-01-12 14:40:00,
2013-01-12 09:45:00,35.4,34.1,30.31,SSE,168,1.0,1.0,95,0.00,,,0.09,Wunderground v.1.15,2013-01-12 14:45:00,
2013-01-12 09:50:00,35.5,34.2,30.31,SSE,168,1.0,1.0,95,0.00,,,0.09,Wunderground v.1.15,2013-01-12 14:50:00,
2013-01-12 09:55:00,35.6,34.3,30.31,SSE,168,1.0,2.0,95,0.00,,,0.09,Wunderground v.1.15,2013-01-12 14:55:00,
2013-01-12 10:00:00,35.6,34.3,30.31,SSE,168,1.0,2.0,95,0.00,,,0.09,Wunderground v.1.15,2013-01-12 15:00:00,
2013-01-12 10:05:00,35.7,34.4,30.31,SSE,167,1.0,2.0,95,0.00,,,0.09,Wunderground v.1.15,2013-01-12 15:05:00,
2013-01-12 10:10:00,35.7,34.4,30.31,SSE,167,1.0,1.0,95,0.00,,,0.09,Wunderground v.1.15,2013-01-12 15:10:00,
2013-01-12 10:15:00,35.9,34.6,30.30,SSE,167,1.0,1.0,95,0.00,,,0.09,Wunderground v.1.15,2013-01-12 15:15:00,
2013-01-12 10:20:00,36.1,34.8,30.30,SSE,167,1.0,1.0,95,0.00,,,0.09,Wunderground v.1.15,2013-01-12 15:20:00,
2013-01-12 10:25:00,36.5,35.5,30.30,SSE,167,0.0,2.0,96,0.00,,,0.09,Wunderground v.1.15,2013-01-12 15:25:00,
2013-01-12 10:30:00,36.7,35.7,30.30,SW,230,1.0,1.0,96,0.00,,,0.09,Wunderground v.1.15,2013-01-12 15:30:00,
2013-01-12 10:35:00,36.6,35.3,30.30,SW,230,1.0,1.0,95,0.00,,,0.09,Wunderground v.1.15,2013-01-12 15:35:00,
2013-01-12 10:40:00,36.4,35.1,30.30,SW,230,1.0,1.0,95,0.00,,,0.09,Wunderground v.1.15,2013-01-12 15:40:00,
2013-01-12 10:45:00,36.6,35.3,30.30,SW,217,1.0,3.0,95,0.00,,,0.09,Wunderground v.1.15,2013-01-12 15:45:00,
2013-01-12 10:50:00,36.9,35.6,30.30,SSW,204,1.0,2.0,95,0.00,,,0.09,Wunderground v.1.15,2013-01-12 15:50:00,
2013-01-12 10:55:00,37.2,36.2,30.30,SW,217,1.0,3.0,96,0.00,,,0.09,Wunderground v.1.15,2013-01-12 15:55:00,
2013-01-12 11:00:00,37.3,36.0,30.30,WSW,244,1.0,4.0,95,0.00,,,0.09,Wunderground v.1.15,2013-01-12 16:00:00,
2013-01-12 11:05:00,37.3,36.0,30.30,SW,229,2.0,4.0,95,0.00,,,0.09,Wunderground v.1.15,2013-01-12 16:05:00,
2013-01-12 11:10:00,37.3,36.0,30.28,WSW,243,2.0,2.0,95,0.00,,,0.09,Wunderground v.1.15,2013-01-12 16:10:00,
2013-01-12 11:15:00,37.4,36.1,30.29,SW,226,2.0,2.0,95,0.00,,,0.09,Wunderground v.1.15,2013-01-12 16:15:00,
2013-01-12 11:20:00,37.4,36.1,30.28,WSW,239,2.0,4.0,95,0.00,,,0.09,Wunderground v.1.15,2013-01-12 16:20:00,
2013-01-12 11:25:00,37.3,35.7,30.28,WSW,248,3.0,6.0,94,0.00,,,0.09,Wunderground v.1.15,2013-01-12 16:25:00,
2013-01-12 11:30:00,37.4,35.8,30.27,SW,229,4.0,4.0,94,0.00,,,0.09,Wunderground v.1.15,2013-01-12 16:30:00,
2013-01-12 11:35:00,37.4,35.8,30.27,SW,227,3.0,4.0,94,0.00,,,0.09,Wunderground v.1.15,2013-01-12 16:35:00,
2013-01-12 11:40:00,37.4,35.8,30.26,WSW,250,4.0,4.0,94,0.00,,,0.09,Wunderground v.1.15,2013-01-12 16:40:00,
2013-01-12 11:45:00,37.4,35.8,30.26,WSW,244,4.0,4.0,94,0.00,,,0.09,Wunderground v.1.15,2013-01-12 16:45:00,
2013-01-12 11:50:00,37.4,35.8,30.26,SW,221,4.0,4.0,94,0.00,,,0.09,Wunderground v.1.15,2013-01-12 16:50:00,
2013-01-12 11:55:00,37.3,35.7,30.26,West,269,4.0,5.0,94,0.00,,,0.09,Wunderground v.1.15,2013-01-12 16:55:00,
2013-01-12 12:00:00,37.2,35.9,30.26,WSW,244,4.0,4.0,95,0.00,,,0.09,Wunderground v.1.15,2013-01-12 17:00:00,
2013-01-12 12:05:00,37.2,35.9,30.26,WSW,238,4.0,4.0,95,0.00,,,0.09,Wunderground v.1.15,2013-01-12 17:05:00,
2013-01-12 12:10:00,37.1,35.8,30.27,West,269,4.0,5.0,95,0.00,,,0.09,Wunderground v.1.15,2013-01-12 17:10:00,
2013-01-12 12:15:00,37.2,35.9,30.26,West,272,3.0,5.0,95,0.00,,,0.09,Wunderground v.1.15,2013-01-12 17:15:00,
2013-01-12 12:20:00,37.1,35.8,30.26,West,280,3.0,3.0,95,0.00,,,0.09,Wunderground v.1.15,2013-01-12 17:20:00,
2013-01-12 12:25:00,37.2,35.9,30.26,WNW,288,3.0,3.0,95,0.00,,,0.09,Wunderground v.1.15,2013-01-12 17:25:00,
2013-01-12 12:30:00,37.4,36.1,30.26,SW,229,2.0,2.0,95,0.00,,,0.09,Wunderground v.1.15,2013-01-12 17:30:00,
2013-01-12 12:40:00,37.5,36.2,30.26,SSW,202,3.0,3.0,95,0.00,,,0.09,Wunderground v.1.15,2013-01-12 17:40:00,
2013-01-12 12:45:00,37.5,36.2,30.27,WSW,241,3.0,6.0,95,0.00,,,0.09,Wunderground v.1.15,2013-01-12 17:45:00,
2013-01-12 12:50:00,37.5,36.2,30.26,West,265,2.0,2.0,95,0.00,,,0.09,Wunderground v.1.15,2013-01-12 17:50:00,
2013-01-12 12:55:00,37.5,36.2,30.26,WSW,243,2.0,4.0,95,0.00,,,0.09,Wunderground v.1.15,2013-01-12 17:55:00,
2013-01-12 13:00:00,37.5,36.2,30.27,West,259,2.0,2.0,95,0.00,,,0.09,Wunderground v.1.15,2013-01-12 18:00:00,
2013-01-12 13:05:00,37.5,36.2,30.27,West,261,3.0,3.0,95,0.00,,,0.09,Wunderground v.1.15,2013-01-12 18:05:00,
2013-01-12 13:10:00,37.5,36.2,30.27,SW,218,2.0,2.0,95,0.00,,,0.09,Wunderground v.1.15,2013-01-12 18:10:00,
2013-01-12 13:15:00,37.6,36.3,30.27,WSW,252,1.0,2.0,95,0.00,,,0.09,Wunderground v.1.15,2013-01-12 18:15:00,
2013-01-12 13:20:00,37.7,36.4,30.27,West,281,2.0,3.0,95,0.00,,,0.09,Wunderground v.1.15,2013-01-12 18:20:00,
2013-01-12 13:25:00,37.7,36.4,30.27,WSW,241,3.0,3.0,95,0.00,,,0.09,Wunderground v.1.15,2013-01-12 18:25:00,
2013-01-12 13:30:00,37.7,36.4,30.27,WSW,246,2.0,2.0,95,0.00,,,0.09,Wunderground v.1.15,2013-01-12 18:30:00,
2013-01-12 13:35:00,37.7,36.4,30.28,WNW,294,2.0,4.0,95,0.00,,,0.09,Wunderground v.1.15,2013-01-12 18:35:00,
2013-01-12 13:40:00,37.8,36.5,30.28,SW,224,3.0,3.0,95,0.00,,,0.09,Wunderground v.1.15,2013-01-12 18:40:00,
2013-01-12 13:50:00,38.1,36.8,30.27,West,271,2.0,3.0,95,0.00,,,0.09,Wunderground v.1.15,2013-01-12 18:50:00,
2013-01-12 14:00:00,38.4,37.1,30.27,West,270,2.0,4.0,95,0.00,,,0.09,Wunderground v.1.15,2013-01-12 19:00:00,
2013-01-12 14:05:00,38.6,37.3,30.27,WNW,302,2.0,4.0,95,0.00,,,0.09,Wunderground v.1.15,2013-01-12 19:05:00,
2013-01-12 14:10:00,38.8,37.5,30.27,SW,234,2.0,2.0,95,0.00,,,0.09,Wunderground v.1.15,2013-01-12 19:10:00,
2013-01-12 14:15:00,38.8,37.5,30.28,WSW,242,2.0,2.0,95,0.00,,,0.09,Wunderground v.1.15,2013-01-12 19:15:00,
2013-01-12 14:20:00,38.9,37.3,30.28,WSW,248,2.0,2.0,94,0.00,,,0.09,Wunderground v.1.15,2013-01-12 19:20:00,
2013-01-12 14:25:00,38.9,37.6,30.28,SW,232,2.0,3.0,95,0.00,,,0.09,Wunderground v.1.15,2013-01-12 19:25:00,
2013-01-12 14:30:00,38.9,37.3,30.28,SW,219,2.0,3.0,94,0.00,,,0.09,Wunderground v.1.15,2013-01-12 19:30:00,
2013-01-12 14:35:00,38.8,37.2,30.28,SW,225,2.0,3.0,94,0.00,,,0.09,Wunderground v.1.15,2013-01-12 19:35:00,
2013-01-12 14:40:00,38.8,37.2,30.27,South,188,2.0,2.0,94,0.00,,,0.09,Wunderground v.1.15,2013-01-12 19:40:00,
2013-01-12 14:45:00,38.7,37.1,30.27,SW,236,2.0,2.0,94,0.00,,,0.09,Wunderground v.1.15,2013-01-12 19:45:00,
2013-01-12 14:50:00,38.7,37.1,30.27,West,260,2.0,2.0,94,0.00,,,0.09,Wunderground v.1.15,2013-01-12 19:50:00,
2013-01-12 14:55:00,38.8,37.2,30.27,West,273,2.0,2.0,94,0.00,,,0.09,Wunderground v.1.15,2013-01-12 19:55:00,
2013-01-12 15:00:00,39.0,37.7,30.28,West,273,1.0,2.0,95,0.00,,,0.09,Wunderground v.1.15,2013-01-12 20:00:00,
2013-01-12 15:05:00,39.0,37.4,30.28,SSW,206,1.0,2.0,94,0.00,,,0.09,Wunderground v.1.15,2013-01-12 20:05:00,
2013-01-12 15:10:00,39.0,37.4,30.28,WSW,238,2.0,3.0,94,0.00,,,0.09,Wunderground v.1.15,2013-01-12 20:10:00,
2013-01-12 15:15:00,39.0,37.4,30.27,SW,223,2.0,3.0,94,0.00,,,0.09,Wunderground v.1.15,2013-01-12 20:15:00,
2013-01-12 15:20:00,38.9,37.3,30.27,SW,231,2.0,4.0,94,0.00,,,0.09,Wunderground v.1.15,2013-01-12 20:20:00,
2013-01-12 15:25:00,38.8,37.2,30.27,WSW,254,2.0,4.0,94,0.00,,,0.09,Wunderground v.1.15,2013-01-12 20:25:00,
2013-01-12 15:30:00,38.7,37.1,30.27,SW,222,2.0,2.0,94,0.00,,,0.09,Wunderground v.1.15,2013-01-12 20:30:00,
2013-01-12 15:35:00,38.6,37.3,30.27,NW,315,2.0,2.0,95,0.00,,,0.09,Wunderground v.1.15,2013-01-12 20:35:00,
2013-01-12 15:40:00,38.5,37.2,30.27,West,281,2.0,3.0,95,0.00,,,0.09,Wunderground v.1.15,2013-01-12 20:40:00,
2013-01-12 15:45:00,38.4,37.1,30.27,WSW,252,1.0,3.0,95,0.00,,,0.09,Wunderground v.1.15,2013-01-12 20:45:00,
2013-01-12 15:50:00,38.4,37.1,30.27,WSW,237,2.0,2.0,95,0.00,,,0.09,Wunderground v.1.15,2013-01-12 20:50:00,
2013-01-12 15:55:00,38.6,37.3,30.26,WSW,243,1.0,2.0,95,0.00,,,0.09,Wunderground v.1.15,2013-01-12 20:55:00,
2013-01-12 16:00:00,38.6,37.3,30.27,NNW,328,1.0,1.0,95,0.00,,,0.09,Wunderground v.1.15,2013-01-12 21:00:00,
2013-01-12 16:05:00,38.6,37.3,30.27,West,279,1.0,3.0,95,0.00,,,0.09,Wunderground v.1.15,2013-01-12 21:05:00,
2013-01-12 16:10:00,38.8,37.5,30.27,WSW,254,3.0,5.0,95,0.00,,,0.09,Wunderground v.1.15,2013-01-12 21:10:00,
2013-01-12 16:15:00,38.9,37.6,30.28,SW,222,4.0,5.0,95,0.00,,,0.09,Wunderground v.1.15,2013-01-12 21:15:00,
2013-01-12 16:20:00,38.9,37.6,30.26,South,170,5.0,5.0,95,0.00,,,0.09,Wunderground v.1.15,2013-01-12 21:20:00,
2013-01-12 16:25:00,38.9,37.6,30.26,SW,222,5.0,5.0,95,0.00,,,0.09,Wunderground v.1.15,2013-01-12 21:25:00,
2013-01-12 16:30:00,39.0,37.7,30.27,South,189,4.0,4.0,95,0.00,,,0.09,Wunderground v.1.15,2013-01-12 21:30:00,
2013-01-12 16:35:00,38.9,37.6,30.27,SW,225,4.0,4.0,95,0.00,,,0.09,Wunderground v.1.15,2013-01-12 21:35:00,
2013-01-12 16:40:00,38.8,37.5,30.27,South,176,2.0,2.0,95,0.00,,,0.09,Wunderground v.1.15,2013-01-12 21:40:00,
2013-01-12 16:45:00,38.7,37.4,30.27,SSW,198,1.0,3.0,95,0.00,,,0.09,Wunderground v.1.15,2013-01-12 21:45:00,
2013-01-12 16:50:00,38.6,37.3,30.27,SSW,203,2.0,4.0,95,0.00,,,0.09,Wunderground v.1.15,2013-01-12 21:50:00,
2013-01-12 16:55:00,38.6,37.3,30.27,SSW,202,2.0,4.0,95,0.00,,,0.09,Wunderground v.1.15,2013-01-12 21:55:00,
2013-01-12 17:00:00,38.5,37.2,30.27,SSW,213,2.0,2.0,95,0.00,,,0.09,Wunderground v.1.15,2013-01-12 22:00:00,
2013-01-12 17:10:00,38.5,37.5,30.27,WSW,255,2.0,2.0,96,0.00,,,0.09,Wunderground v.1.15,2013-01-12 22:10:00,
2013-01-12 17:15:00,38.6,37.6,30.27,WNW,284,2.0,2.0,96,0.00,,,0.09,Wunderground v.1.15,2013-01-12 22:15:00,
2013-01-12 17:20:00,38.6,37.6,30.27,WSW,245,1.0,3.0,96,0.00,,,0.09,Wunderground v.1.15,2013-01-12 22:20:00,
2013-01-12 17:25:00,38.6,37.6,30.27,SSW,207,1.0,3.0,96,0.00,,,0.09,Wunderground v.1.15,2013-01-12 22:25:00,
2013-01-12 17:30:00,38.6,37.6,30.27,NNW,348,1.0,1.0,96,0.00,,,0.09,Wunderground v.1.15,2013-01-12 22:30:00,
2013-01-12 17:40:00,38.6,37.6,30.27,West,267,1.0,1.0,96,0.00,,,0.09,Wunderground v.1.15,2013-01-12 22:40:00,
2013-01-12 17:45:00,38.6,37.6,30.27,East,86,1.0,2.0,96,0.00,,,0.09,Wunderground v.1.15,2013-01-12 22:45:00,
2013-01-12 17:50:00,38.6,37.6,30.26,SSW,207,1.0,2.0,96,0.00,,,0.09,Wunderground v.1.15,2013-01-12 22:50:00,
2013-01-12 17:55:00,38.5,37.5,30.27,SSE,165,1.0,2.0,96,0.00,,,0.09,Wunderground v.1.15,2013-01-12 22:55:00,
2013-01-12 18:01:00,38.6,37.6,30.27,SW,221,1.0,1.0,96,0.00,,,0.09,Wunderground v.1.15,2013-01-12 23:01:00,
2013-01-12 18:05:00,38.7,37.7,30.27,WSW,239,2.0,5.0,96,0.00,,,0.09,Wunderground v.1.15,2013-01-12 23:05:00,
2013-01-12 18:10:00,38.7,37.7,30.27,SW,215,4.0,5.0,96,0.00,,,0.09,Wunderground v.1.15,2013-01-12 23:10:00,
2013-01-12 18:15:00,38.6,37.6,30.26,SW,229,5.0,5.0,96,0.00,,,0.09,Wunderground v.1.15,2013-01-12 23:15:00,
2013-01-12 18:20:00,38.7,37.7,30.26,WSW,247,4.0,5.0,96,0.00,,,0.09,Wunderground v.1.15,2013-01-12 23:20:00,
2013-01-12 18:25:00,38.6,37.6,30.26,SSW,212,3.0,3.0,96,0.00,,,0.09,Wunderground v.1.15,2013-01-12 23:25:00,
2013-01-12 18:30:00,38.6,37.6,30.27,SW,228,3.0,3.0,96,0.00,,,0.09,Wunderground v.1.15,2013-01-12 23:30:00,
2013-01-12 18:35:00,38.5,37.5,30.27,SSW,211,2.0,2.0,96,0.00,,,0.09,Wunderground v.1.15,2013-01-12 23:35:00,
2013-01-12 18:40:00,38.5,37.5,30.26,SW,225,3.0,3.0,96,0.00,,,0.09,Wunderground v.1.15,2013-01-12 23:40:00,
2013-01-12 18:45:00,38.4,37.4,30.26,SSE,150,4.0,4.0,96,0.00,,,0.09,Wunderground v.1.15,2013-01-12 23:45:00,
2013-01-12 18:50:00,38.3,37.3,30.26,WSW,249,4.0,4.0,96,0.00,,,0.09,Wunderground v.1.15,2013-01-12 23:50:00,
2013-01-12 18:55:00,38.5,37.5,30.25,WNW,286,4.0,4.0,96,0.00,,,0.09,Wunderground v.1.15,2013-01-12 23:55:00,
2013-01-12 19:05:00,38.6,37.6,30.25,SW,234,3.0,4.0,96,0.00,,,0.09,Wunderground v.1.15,2013-01-13 00:05:00,
2013-01-12 19:10:00,38.5,37.5,30.26,SW,220,3.0,4.0,96,0.00,,,0.09,Wunderground v.1.15,2013-01-13 00:10:00,
2013-01-12 19:15:00,38.5,37.5,30.26,SW,236,4.0,4.0,96,0.00,,,0.09,Wunderground v.1.15,2013-01-13 00:15:00,
2013-01-12 19:20:00,38.5,37.5,30.25,SW,215,4.0,4.0,96,0.00,,,0.09,Wunderground v.1.15,2013-01-13 00:20:00,
2013-01-12 19:25:00,38.6,37.6,30.26,SW,223,5.0,5.0,96,0.00,,,0.09,Wunderground v.1.15,2013-01-13 00:25:00,
2013-01-12 19:30:00,38.6,37.6,30.26,SW,224,5.0,5.0,96,0.00,,,0.09,Wunderground v.1.15,2013-01-13 00:30:00,
2013-01-12 19:35:00,38.6,37.6,30.26,SW,223,5.0,6.0,96,0.00,,,0.09,Wunderground v.1.15,2013-01-13 00:35:00,
2013-01-12 19:40:00,38.6,37.6,30.25,WSW,254,5.0,6.0,96,0.00,,,0.09,Wunderground v.1.15,2013-01-13 00:40:00,
2013-01-12 19:45:00,38.5,37.5,30.25,West,260,4.0,4.0,96,0.00,,,0.09,Wunderground v.1.15,2013-01-13 00:45:00,
2013-01-12 19:50:00,38.4,37.4,30.25,WNW,287,4.0,4.0,96,0.00,,,0.09,Wunderground v.1.15,2013-01-13 00:50:00,
2013-01-12 19:55:00,38.4,37.4,30.26,West,266,3.0,3.0,96,0.00,,,0.09,Wunderground v.1.15,2013-01-13 00:55:00,
2013-01-12 20:01:00,38.4,37.4,30.26,WSW,246,4.0,4.0,96,0.00,,,0.09,Wunderground v.1.15,2013-01-13 01:01:00,
2013-01-12 20:05:00,38.4,37.4,30.26,WSW,250,4.0,5.0,96,0.00,,,0.09,Wunderground v.1.15,2013-01-13 01:05:00,
2013-01-12 20:10:00,38.4,37.4,30.26,West,275,3.0,5.0,96,0.00,,,0.09,Wunderground v.1.15,2013-01-13 01:10:00,
2013-01-12 20:20:00,38.5,37.5,30.25,South,180,4.0,5.0,96,0.00,,,0.09,Wunderground v.1.15,2013-01-13 01:20:00,
2013-01-12 20:25:00,38.6,37.6,30.25,WNW,286,5.0,6.0,96,0.00,,,0.09,Wunderground v.1.15,2013-01-13 01:25:00,
2013-01-12 20:30:00,38.8,37.8,30.25,West,272,7.0,7.0,96,0.00,,,0.09,Wunderground v.1.15,2013-01-13 01:30:00,
2013-01-12 20:35:00,38.8,37.8,30.24,SW,232,7.0,7.0,96,0.00,,,0.09,Wunderground v.1.15,2013-01-13 01:35:00,
2013-01-12 20:40:00,38.8,37.8,30.25,West,281,6.0,7.0,96,0.00,,,0.09,Wunderground v.1.15,2013-01-13 01:40:00,
2013-01-12 20:45:00,38.8,37.8,30.24,WSW,246,5.0,5.0,96,0.00,,,0.09,Wunderground v.1.15,2013-01-13 01:45:00,
2013-01-12 20:50:00,39.1,38.1,30.24,SW,227,5.0,5.0,96,0.00,,,0.09,Wunderground v.1.15,2013-01-13 01:50:00,
2013-01-12 20:55:00,39.2,38.2,30.24,WSW,242,3.0,4.0,96,0.00,,,0.09,Wunderground v.1.15,2013-01-13 01:55:00,
2013-01-12 21:00:00,39.4,38.4,30.24,West,277,3.0,3.0,96,0.00,,,0.09,Wunderground v.1.15,2013-01-13 02:00:00,
2013-01-12 21:05:00,39.5,38.5,30.25,WSW,239,3.0,3.0,96,0.00,,,0.09,Wunderground v.1.15,2013-01-13 02:05:00,
2013-01-12 21:10:00,39.5,38.5,30.24,WNW,283,2.0,4.0,96,0.00,,,0.09,Wunderground v.1.15,2013-01-13 02:10:00,
2013-01-12 21:15:00,39.3,38.3,30.24,WSW,254,3.0,4.0,96,0.00,,,0.09,Wunderground v.1.15,2013-01-13 02:15:00,
2013-01-12 21:20:00,39.2,38.2,30.23,SSW,203,4.0,4.0,96,0.00,,,0.09,Wunderground v.1.15,2013-01-13 02:20:00,
2013-01-12 21:25:00,39.2,38.2,30.23,SW,227,3.0,4.0,96,0.00,,,0.09,Wunderground v.1.15,2013-01-13 02:25:00,
2013-01-12 21:30:00,39.1,38.1,30.24,NW,326,3.0,3.0,96,0.00,,,0.09,Wunderground v.1.15,2013-01-13 02:30:00,
2013-01-12 21:35:00,39.0,38.0,30.24,SW,225,2.0,4.0,96,0.00,,,0.09,Wunderground v.1.15,2013-01-13 02:35:00,
2013-01-12 21:40:00,39.0,38.0,30.24,WSW,243,2.0,4.0,96,0.00,,,0.09,Wunderground v.1.15,2013-01-13 02:40:00,
2013-01-12 21:45:00,39.1,38.1,30.23,SW,236,2.0,4.0,96,0.00,,,0.09,Wunderground v.1.15,2013-01-13 02:45:00,
2013-01-12 21:50:00,39.2,38.2,30.23,West,270,2.0,2.0,96,0.00,,,0.09,Wunderground v.1.15,2013-01-13 02:50:00,
2013-01-12 21:55:00,39.2,38.2,30.24,SW,232,3.0,6.0,96,0.00,,,0.09,Wunderground v.1.15,2013-01-13 02:55:00,
2013-01-12 22:01:00,39.2,38.2,30.24,SW,227,3.0,3.0,96,0.00,,,0.09,Wunderground v.1.15,2013-01-13 03:01:00,
2013-01-12 22:05:00,39.2,38.2,30.24,SSW,203,3.0,3.0,96,0.00,,,0.09,Wunderground v.1.15,2013-01-13 03:05:00,
2013-01-12 22:10:00,39.2,38.2,30.23,South,183,2.0,3.0,96,0.00,,,0.09,Wunderground v.1.15,2013-01-13 03:10:00,
2013-01-12 22:15:00,39.1,38.1,30.23,SW,223,2.0,4.0,96,0.00,,,0.09,Wunderground v.1.15,2013-01-13 03:15:00,
2013-01-12 22:20:00,39.0,38.0,30.24,West,281,2.0,4.0,96,0.00,,,0.09,Wunderground v.1.15,2013-01-13 03:20:00,
2013-01-12 22:25:00,38.9,37.9,30.24,NW,319,2.0,2.0,96,0.00,,,0.09,Wunderground v.1.15,2013-01-13 03:25:00,
2013-01-12 22:30:00,38.9,37.9,30.24,North,360,2.0,2.0,96,0.00,,,0.09,Wunderground v.1.15,2013-01-13 03:30:00,
2013-01-12 22:35:00,38.8,37.8,30.24,WNW,287,2.0,2.0,96,0.00,,,0.09,Wunderground v.1.15,2013-01-13 03:35:00,
2013-01-12 22:40:00,38.8,37.8,30.24,SW,234,2.0,3.0,96,0.00,,,0.09,Wunderground v.1.15,2013-01-13 03:40:00,
2013-01-12 22:45:00,38.7,37.7,30.23,WSW,254,3.0,5.0,96,0.00,,,0.09,Wunderground v.1.15,2013-01-13 03:45:00,
2013-01-12 22:50:00,38.6,37.6,30.23,West,270,3.0,5.0,96,0.00,,,0.09,Wunderground v.1.15,2013-01-13 03:50:00,
2013-01-12 22:55:00,38.7,37.7,30.22,WNW,298,3.0,3.0,96,0.00,,,0.09,Wunderground v.1.15,2013-01-13 03:55:00,
2013-01-12 23:00:00,38.8,37.8,30.23,WNW,293,2.0,2.0,96,0.00,,,0.09,Wunderground v.1.15,2013-01-13 04:00:00,
2013-01-12 23:05:00,38.7,37.7,30.23,WSW,257,1.0,3.0,96,0.00,,,0.09,Wunderground v.1.15,2013-01-13 04:05:00,
2013-01-12 23:10:00,38.6,37.6,30.23,West,261,3.0,3.0,96,0.00,,,0.09,Wunderground v.1.15,2013-01-13 04:10:00,
2013-01-12 23:15:00,38.7,37.7,30.24,West,278,3.0,3.0,96,0.00,,,0.09,Wunderground v.1.15,2013-01-13 04:15:00,
2013-01-12 23:20:00,38.7,37.7,30.24,SW,234,3.0,3.0,96,0.00,,,0.09,Wunderground v.1.15,2013-01-13 04:20:00,
2013-01-12 23:25:00,38.7,37.7,30.25,SSW,204,2.0,3.0,96,0.00,,,0.09,Wunderground v.1.15,2013-01-13 04:25:00,
2013-01-12 23:30:00,38.7,37.7,30.25,West,261,3.0,3.0,96,0.00,,,0.09,Wunderground v.1.15,2013-01-13 04:30:00,
2013-01-12 23:40:00,38.5,37.5,30.24,West,270,3.0,5.0,96,0.00,,,0.09,Wunderground v.1.15,2013-01-13 04:40:00,
2013-01-12 23:45:00,38.4,37.4,30.24,WSW,258,2.0,5.0,96,0.00,,,0.09,Wunderground v.1.15,2013-01-13 04:45:00,
2013-01-12 23:50:00,38.5,37.5,30.24,WSW,237,3.0,5.0,96,0.00,,,0.09,Wunderground v.1.15,2013-01-13 04:50:00,
2013-01-12 23:55:00,38.6,37.6,30.23,WSW,238,4.0,7.0,96,0.00,,,0.09,Wunderground v.1.15,2013-01-13 04:55:00,